Weather at Hamilton (Chedoke-McMaster Hospital) Heliport

Public forecast

Using degrees Celsius for public forecast. Weather courtesy of forecast.io.

Closest aviation weather report (METAR) to Hamilton (Chedoke-McMaster Hospital) Heliport

Closest report is John C. Munro Hamilton International Airport, 5.6 nm (10.3 km) S.

2024/05/28 16:12 (retrieved 23 minutes ago)

CYHM 281612Z 27010KT 15SM -RA BKN016 OVC022 16/13 A2982 RMK SC7SC1 SLP099 DENSITY ALT 1200FT

Closest aviation forecast (TAF) to Hamilton (Chedoke-McMaster Hospital) Heliport

Closest forecast is John C. Munro Hamilton International Airport, 5.6 nm (10.3 km) S.

2024/05/28 12:42 (retrieved 4 hours ago)

TAF CYHM 281141Z 2812/2912 26010KT P6SM SCT015 OVC060 TEMPO 2812/2816 BKN015 OVC060 BECMG 2812/2814 28012G22KT FM281600 30012G22KT P6SM -SHRA SCT020 OVC060 TEMPO 2816/2822 5SM -SHRA BR BKN020 OVC060 PROB30 2818/2822 4SM TSRA BR BKN020CB FM282200 30012KT P6SM BKN030 OVC060 BECMG 2900/2902 31005KT BECMG 2909/2911 01005KT RMK NXT FCST BY 281800Z